Time;durP1;ratioP1;P1;durP2;ratioP2;P2;SDS_P1;SDS_P2;PMS_P1;PMS_P2;Temp;Humidity;BMP_temperature;BMP_pressure;BME280_temperature;BME280_humidity;BME280_pressure;Samples;Min_cycle;Max_cycle;Signal;HPM_P1;HPM_P2
2022/11/26 07:36:34;;;;;;;310.23;42.73;;;3.70;99.90;;;;;;6254979;22;20023;-84
2022/11/26 07:39:38;;;;;;;;;;;;;;;;;;;;;
2022/11/26 07:42:51;;;;;;;329.17;46.87;;;3.60;99.90;;;;;;6235718;22;20374;-86
2022/11/26 07:45:34;;;;;;;477.63;53.53;;;3.60;99.90;;;;;;6168115;22;20017;-85
2022/11/26 07:48:11;;;;;;;331.93;44.90;;;4.80;99.90;;;;;;6279910;22;20015;-85
2022/11/26 07:50:37;;;;;;;465.97;52.83;;;3.50;99.90;;;;;;6278489;22;20043;-88
2022/11/26 07:57:52;;;;;;;;;;;;;;;;;;;;;
2022/11/26 08:04:58;;;;;;;428.07;50.40;;;4.80;99.90;;;;;;6126768;23;20069;-92
2022/11/26 08:11:16;;;;;;;275.57;43.53;;;5.40;99.90;;;;;;6123518;23;20076;-89
2022/11/26 08:14:29;;;;;;;;;;;;;;;;;;;;;
2022/11/26 08:17:50;;;;;;;;;;;;;;;;;;;;;
2022/11/26 08:20:40;;;;;;;189.50;38.73;;;4.50;99.90;;;;;;6132861;23;20017;-88
2022/11/26 08:23:35;;;;;;;;;;;;;;;;;;;;;
2022/11/26 08:27:02;;;;;;;281.63;41.73;;;4.80;99.90;;;;;;6099339;23;20014;-88
2022/11/26 08:30:08;;;;;;;377.33;51.03;;;4.20;99.90;;;;;;6127374;23;20014;-88
2022/11/26 08:33:19;;;;;;;295.67;47.17;;;5.10;99.90;;;;;;6113068;23;20026;-88
2022/11/26 08:35:54;;;;;;;326.87;49.80;;;5.80;99.90;;;;;;6068480;23;20021;-87
2022/11/26 08:38:34;;;;;;;351.67;49.27;;;5.30;99.90;;;;;;6184746;23;20099;-88
2022/11/26 08:41:13;;;;;;;333.67;45.17;;;4.90;99.90;;;;;;6230736;22;20066;-87
2022/11/26 08:44:30;;;;;;;309.00;44.53;;;4.50;99.90;;;;;;6222507;22;20047;-87
2022/11/26 08:46:56;;;;;;;296.30;43.80;;;4.20;99.90;;;;;;6216726;23;20012;-87
2022/11/26 08:49:36;;;;;;;291.77;44.03;;;4.50;99.90;;;;;;6218426;23;20321;-87
2022/11/26 08:52:11;;;;;;;282.33;45.10;;;5.00;99.90;;;;;;6224500;23;20012;-87
2022/11/26 08:54:46;;;;;;;223.63;39.70;;;5.20;99.90;;;;;;6245390;23;20024;-87
2022/11/26 08:57:27;;;;;;;276.07;43.23;;;4.50;99.90;;;;;;6219186;23;20016;-87
2022/11/26 09:00:12;;;;;;;305.00;42.90;;;4.70;99.90;;;;;;6245084;23;20015;-87
2022/11/26 09:02:37;;;;;;;284.80;44.13;;;5.10;99.90;;;;;;6217225;23;20027;-87
2022/11/26 09:05:18;;;;;;;257.10;40.33;;;5.10;99.90;;;;;;6218044;23;20024;-90
2022/11/26 09:07:49;;;;;;;231.70;37.40;;;5.20;99.90;;;;;;6245119;23;20053;-86
2022/11/26 09:10:17;;;;;;;233.10;39.67;;;4.70;99.90;;;;;;6215647;23;20016;-88
2022/11/26 09:12:46;;;;;;;206.47;39.13;;;3.90;99.90;;;;;;6217175;23;20008;-88
2022/11/26 09:15:26;;;;;;;260.30;42.07;;;5.30;99.90;;;;;;6244426;23;20020;-87
2022/11/26 09:18:30;;;;;;;199.93;38.30;;;5.00;99.90;;;;;;6217970;23;20008;-88
2022/11/26 09:21:02;;;;;;;219.63;39.70;;;4.90;99.90;;;;;;6216220;23;20099;-87
2022/11/26 09:23:31;;;;;;;258.23;44.20;;;6.50;99.90;;;;;;6216706;23;20016;-88
2022/11/26 09:26:02;;;;;;;187.73;39.43;;;5.00;99.90;;;;;;6246025;23;20035;-88
2022/11/26 09:28:39;;;;;;;186.17;40.00;;;5.10;99.90;;;;;;6243158;23;20024;-87
2022/11/26 09:31:05;;;;;;;174.00;39.30;;;5.20;99.90;;;;;;6217830;23;20020;-87
2022/11/26 09:33:56;;;;;;;176.03;40.93;;;5.50;99.90;;;;;;6217414;23;20387;-87
2022/11/26 09:36:41;;;;;;;197.43;42.10;;;5.70;99.90;;;;;;6229374;23;20016;-88
2022/11/26 09:39:31;;;;;;;209.93;42.40;;;6.50;99.90;;;;;;6244874;23;20018;-87
2022/11/26 09:42:45;;;;;;;207.80;43.33;;;5.40;99.90;;;;;;6238286;23;20519;-87
2022/11/26 09:45:48;;;;;;;189.45;43.58;;;5.60;99.90;;;;;;6260267;22;20019;-87
2022/11/26 09:48:29;;;;;;;171.70;41.70;;;5.80;99.90;;;;;;6248813;22;20020;-87
2022/11/26 09:51:19;;;;;;;202.63;43.10;;;5.20;99.90;;;;;;6275359;22;20015;-86
2022/11/26 10:09:33;;;;;;;212.70;46.57;;;6.70;99.90;;;;;;6278387;22;20035;-85
2022/11/26 10:20:04;;;;;;;171.10;38.40;;;5.60;99.90;;;;;;6273323;22;20081;-88
2022/11/26 10:34:10;;;;;;;177.73;45.70;;;5.50;99.90;;;;;;6212843;23;20926;-88
2022/11/26 10:36:49;;;;;;;164.63;43.33;;;6.70;99.90;;;;;;6187914;23;20457;-87
2022/11/26 10:39:38;;;;;;;191.47;43.37;;;7.20;99.90;;;;;;6212948;23;20016;-87
2022/11/26 10:43:17;;;;;;;159.23;41.67;;;6.50;99.90;;;;;;6188171;23;20017;-89
2022/11/26 10:45:57;;;;;;;148.53;38.77;;;7.20;99.90;;;;;;6012726;23;20140;-87
2022/11/26 10:49:10;;;;;;;148.97;41.47;;;6.50;99.90;;;;;;6111156;23;20022;-88
2022/11/26 10:59:20;;;;;;;154.10;40.70;;;6.20;99.90;;;;;;6062498;23;20058;-88
2022/11/26 11:02:25;;;;;;;155.50;39.35;;;6.60;99.90;;;;;;6108321;23;20048;-87
2022/11/26 11:05:06;;;;;;;147.37;38.20;;;6.70;99.90;;;;;;6156651;23;20028;-86
2022/11/26 11:07:52;;;;;;;147.13;38.80;;;6.70;99.90;;;;;;6155730;23;20044;-86
2022/11/26 11:10:24;;;;;;;144.33;38.60;;;6.90;99.90;;;;;;6182170;23;20480;-86
2022/11/26 11:13:12;;;;;;;151.27;38.70;;;7.90;99.90;;;;;;6181090;23;20017;-87
2022/11/26 11:16:29;;;;;;;139.53;37.60;;;7.30;99.90;;;;;;6252754;22;20404;-86
2022/11/26 11:19:45;;;;;;;142.50;39.33;;;6.20;99.90;;;;;;6276276;22;20012;-86
2022/11/26 11:22:57;;;;;;;140.80;39.20;;;6.80;99.90;;;;;;6273924;22;20026;-86
2022/11/26 11:25:30;;;;;;;137.97;37.73;;;6.90;99.90;;;;;;6275081;22;20020;-86
2022/11/26 11:28:30;;;;;;;138.50;37.05;;;6.60;99.90;;;;;;6286049;22;20019;-86
2022/11/26 11:31:17;;;;;;;129.53;36.90;;;6.80;99.90;;;;;;6238250;22;20020;-86
2022/11/26 11:34:12;;;;;;;114.90;33.13;;;7.00;99.90;;;;;;6274749;22;20491;-87
2022/11/26 11:37:20;;;;;;;116.87;35.23;;;6.90;99.90;;;;;;6275757;22;20020;-86
2022/11/26 11:40:03;;;;;;;104.60;34.33;;;6.70;99.90;;;;;;6274302;22;20022;-86
2022/11/26 11:42:44;;;;;;;111.95;34.58;;;7.30;99.90;;;;;;6274142;22;20049;-86
2022/11/26 11:45:33;;;;;;;99.73;34.50;;;6.80;99.90;;;;;;6274783;22;20016;-87
2022/11/26 11:48:37;;;;;;;93.90;33.57;;;7.10;99.90;;;;;;6274394;22;20471;-86
2022/11/26 11:51:40;;;;;;;95.30;34.03;;;7.10;99.90;;;;;;6273827;22;20340;-86
2022/11/26 11:55:09;;;;;;;97.80;34.50;;;6.40;99.90;;;;;;6274174;22;20022;-87
2022/11/26 11:58:24;;;;;;;113.37;37.13;;;7.40;99.90;;;;;;6233193;22;20039;-89
2022/11/26 12:01:44;;;;;;;102.63;36.10;;;7.30;99.90;;;;;;6283668;22;20023;-85
2022/11/26 12:07:43;;;;;;;96.83;35.80;;;7.10;99.90;;;;;;6279071;22;20003;-85
2022/11/26 12:10:46;;;;;;;89.93;34.77;;;7.30;99.90;;;;;;6277445;22;20020;-86
2022/11/26 12:13:16;;;;;;;83.10;33.30;;;7.40;99.90;;;;;;6274793;22;20020;-85
2022/11/26 12:24:28;;;;;;;;;;;;;;;;;;;;;
2022/11/26 12:32:03;;;;;;;81.70;31.17;;;7.70;99.90;;;;;;5956018;24;20035;-87
2022/11/26 12:35:22;;;;;;;77.28;30.75;;;7.50;99.90;;;;;;5979407;23;20450;-86
2022/11/26 12:42:21;;;;;;;;;;;;;;;;;;;;;
2022/11/26 12:57:10;;;;;;;52.97;23.60;;;8.10;99.90;;;;;;6276387;22;20099;-87
2022/11/26 13:00:53;;;;;;;;;;;;;;;;;;;;;
2022/11/26 13:04:25;;;;;;;;;;;;;;;;;;;;;
2022/11/26 13:08:13;;;;;;;53.90;23.63;;;8.10;99.90;;;;;;6174107;23;20060;-86
2022/11/26 13:11:09;;;;;;;55.33;21.80;;;7.60;99.90;;;;;;6064886;23;20056;-87
2022/11/26 13:14:51;;;;;;;50.57;21.67;;;7.10;99.90;;;;;;6181927;23;20028;-88
2022/11/26 13:17:48;;;;;;;49.80;20.87;;;7.80;99.90;;;;;;6137992;22;20125;-86
2022/11/26 13:20:41;;;;;;;46.77;19.70;;;8.50;99.90;;;;;;6249217;22;20070;-86
2022/11/26 13:27:13;;;;;;;46.83;19.23;;;7.90;99.90;;;;;;6243773;22;20020;-85
2022/11/26 13:30:13;;;;;;;49.90;18.90;;;7.90;99.90;;;;;;6249611;22;20077;-86
2022/11/26 13:33:13;;;;;;;40.20;17.77;;;7.40;99.90;;;;;;6250239;22;20506;-86
2022/11/26 13:36:34;;;;;;;40.67;17.57;;;7.90;99.90;;;;;;6249832;22;20016;-86
2022/11/26 13:39:19;;;;;;;39.87;17.37;;;8.60;99.90;;;;;;6281700;22;20166;-85
2022/11/26 13:42:25;;;;;;;35.27;17.13;;;8.90;99.90;;;;;;6199323;22;20047;-86
2022/11/26 13:45:35;;;;;;;37.73;18.20;;;7.40;99.90;;;;;;6254561;22;20051;-86
2022/11/26 13:48:22;;;;;;;41.80;18.73;;;7.90;99.90;;;;;;6252055;22;20059;-86
2022/11/26 13:58:02;;;;;;;44.03;20.13;;;7.60;99.90;;;;;;6248729;22;20027;-86
2022/11/26 14:00:53;;;;;;;42.10;20.67;;;8.10;99.90;;;;;;6250206;22;20452;-85
2022/11/26 14:03:44;;;;;;;43.28;19.30;;;8.00;99.90;;;;;;6276489;22;20012;-86
2022/11/26 14:06:36;;;;;;;39.27;19.20;;;9.50;99.90;;;;;;6250701;22;20050;-85
2022/11/26 14:13:27;;;;;;;39.80;17.83;;;7.40;99.90;;;;;;6249428;22;20020;-85
2022/11/26 14:16:18;;;;;;;39.60;17.73;;;7.80;99.90;;;;;;6155890;23;20022;-86
2022/11/26 14:19:11;;;;;;;42.33;18.77;;;7.90;99.90;;;;;;6276021;22;20015;-85
2022/11/26 14:22:36;;;;;;;37.33;17.47;;;8.10;99.90;;;;;;6277313;22;20027;-86
2022/11/26 14:25:43;;;;;;;36.50;16.17;;;7.50;99.90;;;;;;6198008;22;20012;-85
2022/11/26 14:28:50;;;;;;;38.07;16.70;;;9.20;99.90;;;;;;6277567;22;20015;-86
2022/11/26 14:31:24;;;;;;;34.70;16.67;;;8.50;99.90;;;;;;6274835;22;20019;-87
2022/11/26 14:33:53;;;;;;;;;;;6.80;99.90;;;;;;6250387;22;20521;-83
2022/11/26 14:37:14;;;;;;;42.43;16.90;;;9.10;99.90;;;;;;6248554;22;19922;-83
2022/11/26 14:39:39;;;;;;;43.23;16.60;;;8.10;99.90;;;;;;6248140;22;20022;-83
2022/11/26 14:42:18;;;;;;;35.90;16.37;;;7.10;99.90;;;;;;6248833;22;20008;-83
2022/11/26 14:45:21;;;;;;;37.60;17.33;;;8.90;99.90;;;;;;6249158;22;20065;-83
2022/11/26 14:48:13;;;;;;;37.13;16.53;;;7.40;99.90;;;;;;6098337;23;20529;-83
2022/11/26 14:50:39;;;;;;;39.50;15.90;;;7.60;99.90;;;;;;6246960;22;20087;-82
2022/11/26 14:53:11;;;;;;;37.77;15.40;;;7.50;99.90;;;;;;6249339;22;20008;-82
2022/11/26 14:55:52;;;;;;;36.30;15.53;;;8.20;99.90;;;;;;6277308;22;20019;-83
2022/11/26 14:58:31;;;;;;;35.97;15.17;;;8.80;99.90;;;;;;6249852;22;20026;-82
2022/11/26 15:01:05;;;;;;;36.77;15.60;;;8.20;99.90;;;;;;6248821;22;20012;-83
2022/11/26 15:03:31;;;;;;;31.60;14.70;;;7.50;99.90;;;;;;6250279;22;20011;-83
2022/11/26 15:06:48;;;;;;;40.63;15.80;;;7.50;99.90;;;;;;6249302;22;20107;-83
2022/11/26 15:09:15;;;;;;;35.67;15.70;;;7.90;99.90;;;;;;6248611;22;20020;-83
2022/11/26 15:12:08;;;;;;;41.83;17.53;;;8.70;99.90;;;;;;6248773;22;20061;-82
2022/11/26 15:14:53;;;;;;;41.93;17.40;;;7.50;99.90;;;;;;6280137;22;20042;-82
2022/11/26 15:20:53;;;;;;;39.83;17.43;;;7.40;99.90;;;;;;6275577;22;20054;-82
2022/11/26 15:23:58;;;;;;;36.27;15.67;;;7.10;99.90;;;;;;6281654;22;20011;-83
2022/11/26 15:26:33;;;;;;;38.43;16.13;;;7.40;99.90;;;;;;6277403;22;20459;-83
2022/11/26 15:28:59;;;;;;;37.50;15.57;;;7.20;99.90;;;;;;6248212;22;20138;-83
2022/11/26 15:31:41;;;;;;;34.53;16.30;;;7.40;99.90;;;;;;6276547;22;20051;-83
2022/11/26 15:34:12;;;;;;;37.27;16.40;;;8.60;99.90;;;;;;6277241;22;20344;-83
2022/11/26 15:36:38;;;;;;;35.50;15.53;;;7.60;99.90;;;;;;6275846;22;20098;-83
2022/11/26 15:39:39;;;;;;;40.80;16.07;;;7.00;99.90;;;;;;6249631;22;20054;-83
2022/11/26 15:42:34;;;;;;;35.53;15.77;;;7.30;99.90;;;;;;6249324;22;20454;-84
2022/11/26 15:45:00;;;;;;;37.33;16.83;;;6.70;99.90;;;;;;6182923;22;20396;-85
2022/11/26 15:47:58;;;;;;;38.27;15.93;;;7.10;99.90;;;;;;6264138;22;20074;-85
2022/11/26 15:50:35;;;;;;;43.47;18.07;;;7.00;99.90;;;;;;6236906;22;20455;-83
2022/11/26 15:53:16;;;;;;;34.40;17.07;;;7.10;99.90;;;;;;6249729;22;20027;-83
2022/11/26 15:55:48;;;;;;;43.60;17.03;;;7.10;99.90;;;;;;6249012;22;20050;-83
2022/11/26 15:58:37;;;;;;;39.47;15.83;;;7.10;99.90;;;;;;6249224;22;20031;-83
2022/11/26 16:01:13;;;;;;;32.83;15.67;;;8.80;99.90;;;;;;6249680;22;20016;-83
2022/11/26 16:07:21;;;;;;;37.70;15.40;;;9.10;99.90;;;;;;6244679;22;20023;-85
2022/11/26 16:10:59;;;;;;;37.77;15.73;;;6.90;99.90;;;;;;6276481;22;20023;-85
2022/11/26 16:13:51;;;;;;;35.60;14.93;;;7.90;99.90;;;;;;6152586;23;20320;-84
2022/11/26 16:23:33;;;;;;;33.20;14.10;;;9.10;99.90;;;;;;6204796;22;20016;-84
2022/11/26 16:30:28;;;;;;;37.60;15.13;;;7.30;99.90;;;;;;6156000;23;20028;-85
2022/11/26 16:33:15;;;;;;;34.27;14.17;;;7.10;99.90;;;;;;6201653;22;20026;-84
2022/11/26 16:35:41;;;;;;;38.50;14.53;;;6.90;99.90;;;;;;6246250;22;20023;-86
2022/11/26 16:38:42;;;;;;;43.50;14.53;;;6.50;99.90;;;;;;6246301;22;20024;-86
2022/11/26 16:41:12;;;;;;;34.97;14.47;;;6.60;99.90;;;;;;6248734;22;20019;-86
2022/11/26 16:44:14;;;;;;;36.47;14.90;;;6.80;99.90;;;;;;6276232;22;20095;-87
2022/11/26 16:46:53;;;;;;;39.53;14.10;;;6.10;99.90;;;;;;6244636;22;20051;-86
2022/11/26 16:49:57;;;;;;;36.03;14.60;;;6.10;99.90;;;;;;6249230;22;20440;-87
2022/11/26 16:53:14;;;;;;;;;;;;;;;;;;;;;
2022/11/26 17:00:20;;;;;;;32.77;12.63;;;7.30;99.90;;;;;;6241118;22;20047;-88
2022/11/26 17:06:37;;;;;;;33.63;12.73;;;5.90;99.90;;;;;;6278529;22;20019;-88
2022/11/26 17:09:42;;;;;;;38.67;13.67;;;6.70;99.90;;;;;;6250377;22;20027;-88
2022/11/26 17:12:55;;;;;;;34.63;12.63;;;7.20;99.90;;;;;;6128217;23;20501;-88
2022/11/26 17:16:03;;;;;;;35.33;12.57;;;5.70;99.90;;;;;;6170293;22;20046;-88
2022/11/26 17:18:31;;;;;;;36.70;13.33;;;8.00;99.90;;;;;;6136901;22;20027;-87
2022/11/26 17:21:03;;;;;;;34.50;13.03;;;5.70;99.90;;;;;;6274450;22;20448;-87
2022/11/26 17:24:10;;;;;;;34.70;13.33;;;6.70;99.90;;;;;;6251622;22;20023;-87
2022/11/26 17:29:52;;;;;;;50.40;13.55;;;7.60;99.90;;;;;;6217630;22;20031;-87
2022/11/26 17:32:21;;;;;;;32.33;12.20;;;7.90;99.90;;;;;;6253375;22;20019;-88
2022/11/26 17:34:47;;;;;;;41.03;12.60;;;6.10;99.90;;;;;;6242135;22;20077;-87
2022/11/26 17:37:45;;;;;;;38.40;12.73;;;5.50;99.90;;;;;;6275808;22;20016;-88
2022/11/26 17:40:26;;;;;;;41.07;12.90;;;6.40;99.90;;;;;;6248542;22;20308;-88
2022/11/26 17:44:21;;;;;;;;;;;;;;;;;;;;;
2022/11/26 18:56:21;;;;;;;36.37;10.60;;;7.10;99.90;;;;;;6183309;23;20047;-88
2022/11/26 18:59:20;;;;;;;32.30;10.80;;;6.50;99.90;;;;;;6156008;23;20021;-86
2022/11/26 19:14:00;;;;;;;;;;;;;;;;;;;;;
2022/11/26 19:34:41;;;;;;;28.17;9.20;;;6.50;99.90;;;;;;6153264;23;20020;-87
2022/11/26 19:37:09;;;;;;;30.67;9.57;;;6.80;99.90;;;;;;6174317;23;20020;-86
2022/11/26 19:39:56;;;;;;;;;;;;;;;;;;;;;
2022/11/26 19:46:57;;;;;;;25.52;8.35;;;6.50;99.90;;;;;;6131137;23;20097;-86
2022/11/26 19:49:32;;;;;;;29.40;8.57;;;6.50;99.90;;;;;;6148242;23;20049;-85
2022/11/26 19:51:58;;;;;;;24.93;8.17;;;6.60;99.90;;;;;;6133917;23;20022;-87
2022/11/26 20:09:24;;;;;;;24.93;8.90;;;5.70;99.90;;;;;;6255869;23;20059;-90
2022/11/26 20:28:41;;;;;;;;;;;;;;;;;;;;;
2022/11/26 20:31:47;;;;;;;33.53;9.03;;;7.20;99.90;;;;;;5833281;24;20522;-85
2022/11/26 20:38:03;;;;;;;29.60;9.00;;;7.50;99.90;;;;;;6214238;22;20514;-87
2022/11/26 21:12:44;;;;;;;18.03;6.17;;;7.10;99.90;;;;;;6181275;22;20095;-86
2022/11/26 21:19:47;;;;;;;21.27;6.43;;;8.00;99.90;;;;;;6214947;23;20345;-87
2022/11/26 21:38:50;;;;;;;19.50;6.80;;;7.40;99.90;;;;;;6215187;23;20028;-87
2022/11/26 21:52:46;;;;;;;18.77;6.37;;;7.70;99.90;;;;;;6103618;23;20021;-87
2022/11/26 21:55:51;;;;;;;22.07;6.20;;;6.80;99.90;;;;;;6073598;23;20018;-86
2022/11/26 21:58:36;;;;;;;;;;;;;;;;;;;;;
2022/11/26 22:32:50;;;;;;;18.53;6.57;;;6.60;99.90;;;;;;6183171;23;20025;-85
2022/11/26 22:42:04;;;;;;;17.98;6.00;;;7.40;99.90;;;;;;6184679;23;20100;-88
2022/11/26 22:44:29;;;;;;;17.93;6.20;;;6.50;99.90;;;;;;6186920;23;20055;-87
2022/11/26 22:47:04;;;;;;;18.17;6.47;;;6.30;99.90;;;;;;6188149;23;20017;-87
2022/11/26 22:56:51;;;;;;;22.40;6.13;;;5.60;99.90;;;;;;6098794;23;20027;-87
2022/11/26 22:59:22;;;;;;;17.60;6.03;;;6.40;99.90;;;;;;6214421;23;20017;-87
2022/11/26 23:01:55;;;;;;;19.40;5.87;;;5.90;99.90;;;;;;6188086;23;20021;-87
2022/11/26 23:04:23;;;;;;;21.60;7.25;;;6.20;99.90;;;;;;6215015;23;20087;-87
2022/11/26 23:06:55;;;;;;;19.00;6.00;;;6.50;99.90;;;;;;6186966;23;20017;-87
2022/11/26 23:09:26;;;;;;;19.40;6.73;;;6.60;99.90;;;;;;6188174;23;20008;-87
2022/11/26 23:12:10;;;;;;;20.30;7.10;;;7.10;99.90;;;;;;6187643;23;20012;-87
2022/11/26 23:14:42;;;;;;;19.15;7.18;;;6.00;99.90;;;;;;6187811;23;20383;-87
2022/11/26 23:17:08;;;;;;;22.10;7.33;;;5.50;99.90;;;;;;6188409;23;20017;-87
2022/11/26 23:19:36;;;;;;;21.27;6.77;;;5.90;99.90;;;;;;6213816;23;20452;-87
2022/11/26 23:22:11;;;;;;;24.47;7.87;;;6.70;99.90;;;;;;6220192;23;20013;-87
2022/11/26 23:24:42;;;;;;;22.10;7.60;;;5.60;99.90;;;;;;6188802;23;20016;-86
2022/11/26 23:27:13;;;;;;;19.20;7.23;;;6.20;99.90;;;;;;6214874;23;20056;-87
2022/11/26 23:29:39;;;;;;;20.33;7.23;;;6.00;99.90;;;;;;6192864;23;20012;-87
2022/11/26 23:32:05;;;;;;;18.90;7.10;;;5.30;99.90;;;;;;6189006;23;20071;-87
2022/11/26 23:34:36;;;;;;;25.43;7.70;;;6.00;99.90;;;;;;6214319;23;20016;-87
2022/11/26 23:37:02;;;;;;;20.77;7.10;;;6.00;99.90;;;;;;6189021;23;20019;-87
2022/11/26 23:39:27;;;;;;;21.00;7.23;;;5.70;99.90;;;;;;6187713;23;20028;-87
2022/11/26 23:41:57;;;;;;;23.83;7.77;;;6.90;99.90;;;;;;6213860;23;20021;-87
2022/11/26 23:44:26;;;;;;;22.77;7.13;;;6.00;99.90;;;;;;6215409;23;20071;-87
2022/11/26 23:46:51;;;;;;;23.60;7.90;;;5.20;99.90;;;;;;6188500;23;20017;-87
2022/11/26 23:49:21;;;;;;;22.63;7.57;;;5.60;99.90;;;;;;6214461;23;20008;-87
2022/11/26 23:51:53;;;;;;;17.47;7.30;;;5.30;99.90;;;;;;6188447;23;20031;-87
2022/11/26 23:54:24;;;;;;;23.43;8.00;;;6.60;99.90;;;;;;6187510;23;20013;-87
2022/11/26 23:57:03;;;;;;;21.63;7.87;;;5.30;99.90;;;;;;6187894;23;20452;-86
2022/11/26 23:59:46;;;;;;;22.47;7.37;;;5.40;99.90;;;;;;6214688;23;20024;-87
